Airfield :







YOU CAN JOIN US ON...

 
LOGIN :

Register | Disclaimer

   EN    FR    IT 

 









Legend :    VFR   Marginal VFR   IFR   Intensive IFR   Very Intensive IFR
Visi :
Ceiling :
>= 8 km
>= 3000ft
5 to 8 km
1000 to 3000 ft
1500m to 5 km
500 to 1000 ft
800 to 1500m
200 to 500 ft
< 800m
< 200 ft
Symbols :   Thunderstorms  Fog  Heavy snow  Heavy precipitations  Wind > 20 kt






- Airport Elevation : 461 ft
- IATA code : YYT


CYYT - St John's Int

CURRENT METAR :
  • 281300Z 25017G24KT 15SM BKN018 15/12 A2991 RMK SC6 SLP131 DENSITY ALT 700FT

EXPIRED METARs :
  • 281200Z 23010G16KT 15SM BKN010 14/13 A2990 RMK SC7 SLP128 DENSITY ALT 500FT
  • 281100Z 24012KT 15SM SCT005 BKN120 12/11 A2990 RMK ST4AC2 SLP128

TAF TAF CYYT
Valid from the 28 at 12:00 until the 29 at 12:00 UTC


281138Z 2812/2912 24012KT P6SM SCT005
TEMPO 2812/2814 BKN005
FM281400 26015G25KT P6SM FEW040
FM281900 25015G25KT P6SM SCT020 BKN040
FM282100 24018G28KT P6SM -SHRA BKN020 OVC040
FM290100 25012KT 6SM -RA -DZ BR BKN008 OVC025
FM290800 24015KT 2SM -RA BR OVC008 RMK NXT FCST BY 281800Z
CZQX FIR / North America



MET'MAP, your aeronautical weather chart ! - Copyright ORBIFLY December 2007 - Disclaimer

ORBIFLY MET'MAP TEAM :

Programming & Development : Alexandra Zaïnal
Concept & original design : Baudouin d'Aumeries
Assistance for programming : Marc-Olivier Méhu
Technical & hardware support : Manuel Goepfert

Contact : metmap@orbifly.com




SOURCES & CREDITS :

   NOAA